createdAt,value
2019-04-11T00:00:33.253Z,0.40
2019-04-11T00:03:00.602Z,0.60
2019-04-11T00:05:28.596Z,0.90
2019-04-11T00:07:57.211Z,0.60
2019-04-11T00:12:52.091Z,0.77
2019-04-11T00:15:18.334Z,0.80
2019-04-11T00:17:45.966Z,0.80
2019-04-11T00:20:13.106Z,0.70
2019-04-11T00:22:39.500Z,0.73
2019-04-11T00:25:05.822Z,0.90
2019-04-11T00:27:32.969Z,0.80
2019-04-11T00:30:00.255Z,0.70
2019-04-11T00:32:27.554Z,0.57
2019-04-11T00:34:55.315Z,0.80
2019-04-11T00:37:23.191Z,0.70
2019-04-11T00:39:52.022Z,0.70
2019-04-11T00:42:19.138Z,0.70
2019-04-11T00:44:45.416Z,0.90
2019-04-11T00:47:11.679Z,0.90
2019-04-11T00:49:38.764Z,0.80
2019-04-11T00:52:06.566Z,0.70
2019-04-11T00:54:33.150Z,0.67
2019-04-11T00:57:01.317Z,0.67
2019-04-11T00:59:27.593Z,0.70
2019-04-11T01:01:53.841Z,0.90
2019-04-11T01:04:20.116Z,0.67
2019-04-11T01:06:46.717Z,0.73
2019-04-11T01:09:14.536Z,0.57
2019-04-11T01:11:40.798Z,0.90
2019-04-11T01:14:07.861Z,0.90
2019-04-11T01:19:33.341Z,0.50
2019-04-11T01:21:59.625Z,0.77
2019-04-11T01:24:26.319Z,0.87
2019-04-11T01:26:53.802Z,0.67
2019-04-11T01:29:20.897Z,1.00
2019-04-11T01:34:35.032Z,0.80
2019-04-11T01:37:01.698Z,0.60
2019-04-11T01:39:49.679Z,0.67
2019-04-11T01:42:17.449Z,0.73
2019-04-11T01:44:45.843Z,0.80
2019-04-11T01:47:46.824Z,0.97
2019-04-11T01:53:00.876Z,0.80
2019-04-11T01:55:28.194Z,0.50
2019-04-11T01:57:55.332Z,0.70
2019-04-11T02:00:42.042Z,0.60
2019-04-11T02:03:28.411Z,0.63
2019-04-11T02:05:54.765Z,0.50
2019-04-11T02:08:21.044Z,0.60
2019-04-11T02:10:47.297Z,0.53
2019-04-11T02:13:13.558Z,0.60
2019-04-11T02:15:40.742Z,1.10
2019-04-11T02:18:08.074Z,0.80
2019-04-11T02:20:34.306Z,0.60
2019-04-11T02:23:21.450Z,0.53
2019-04-11T02:26:07.527Z,0.70
2019-04-11T02:28:34.915Z,0.77
2019-04-11T02:31:04.579Z,0.30
2019-04-11T02:33:30.725Z,0.80
2019-04-11T02:35:57.281Z,0.90
2019-04-11T02:38:24.547Z,0.83
2019-04-11T02:40:52.561Z,0.83
2019-04-11T02:43:20.669Z,0.77
2019-04-11T02:46:01.090Z,0.80
2019-04-11T02:48:18.328Z,0.63
2019-04-11T02:50:45.906Z,0.60
2019-04-11T02:53:14.737Z,0.67
2019-04-11T02:55:41.819Z,0.50
2019-04-11T02:58:10.400Z,0.87
2019-04-11T03:00:37.933Z,0.80
2019-04-11T03:03:05.685Z,0.87
2019-04-11T03:05:34.526Z,0.30
2019-04-11T03:10:33.613Z,0.70
2019-04-11T03:13:02.783Z,1.13
2019-04-11T03:15:43.176Z,0.80
2019-04-11T03:18:02.033Z,0.80
2019-04-11T03:20:33.699Z,0.70
2019-04-11T03:22:59.368Z,1.00
2019-04-11T03:28:21.028Z,1.30
2019-04-11T03:31:03.843Z,0.93
2019-04-11T03:38:33.177Z,0.80
2019-04-11T03:40:57.667Z,0.70
2019-04-11T03:43:16.370Z,1.20
2019-04-11T03:46:16.071Z,0.63
2019-04-11T03:48:36.890Z,1.20
2019-04-11T03:50:54.530Z,1.00
2019-04-11T03:53:20.057Z,0.60
2019-04-11T03:55:47.571Z,0.73
2019-04-11T03:58:15.496Z,1.30
2019-04-11T04:00:44.293Z,3.67
2019-04-11T04:03:11.286Z,0.97
2019-04-11T04:05:39.717Z,0.97
2019-04-11T04:08:08.766Z,1.40
2019-04-11T04:17:11.043Z,1.30
2019-04-11T04:24:47.684Z,0.90
2019-04-11T04:27:36.035Z,0.90
2019-04-11T04:30:27.675Z,0.90
2019-04-11T04:32:54.555Z,0.50
2019-04-11T04:35:23.580Z,1.00
2019-04-11T04:37:51.679Z,1.27
2019-04-11T04:40:36.036Z,1.07
2019-04-11T04:43:08.184Z,1.13
2019-04-11T04:45:55.166Z,0.70
2019-04-11T04:48:07.834Z,0.70
2019-04-11T04:50:31.115Z,0.50
2019-04-11T04:52:58.271Z,0.80
2019-04-11T04:55:26.410Z,0.43
2019-04-11T05:00:45.637Z,1.00
2019-04-11T05:05:44.309Z,0.67
2019-04-11T05:08:11.226Z,0.30
2019-04-11T05:10:38.152Z,0.70
2019-04-11T05:13:05.843Z,0.70
2019-04-11T05:15:34.550Z,1.40
2019-04-11T05:18:02.139Z,0.20
2019-04-11T05:20:28.411Z,0.37
2019-04-11T05:25:52.824Z,0.40
2019-04-11T05:28:41.554Z,0.50
2019-04-11T05:31:08.358Z,0.23
2019-04-11T05:36:28.327Z,0.60
2019-04-11T05:39:20.021Z,0.30
2019-04-11T05:41:48.702Z,0.60
2019-04-11T05:44:30.571Z,0.30
2019-04-11T05:47:27.636Z,0.70
2019-04-11T05:52:44.077Z,0.60
2019-04-11T06:00:55.776Z,0.40
2019-04-11T06:03:23.933Z,0.50
2019-04-11T06:06:10.913Z,0.50
2019-04-11T06:08:37.842Z,0.43
2019-04-11T06:16:36.917Z,0.37
2019-04-11T06:19:15.037Z,1.30
2019-04-11T06:22:01.256Z,0.53
2019-04-11T06:24:48.202Z,0.43
2019-04-11T06:30:44.377Z,0.30
2019-04-11T06:33:30.749Z,0.40
2019-04-11T06:36:17.977Z,0.20
2019-04-11T06:39:05.157Z,0.30
2019-04-11T06:41:51.374Z,0.40
2019-04-11T06:44:37.710Z,0.40
2019-04-11T06:47:24.967Z,0.30
2019-04-11T06:50:11.396Z,0.40
2019-04-11T07:03:22.279Z,0.30
2019-04-11T07:05:42.699Z,0.50
2019-04-11T07:08:09.915Z,0.80
2019-04-11T07:13:43.581Z,0.40
2019-04-11T07:19:15.677Z,0.37
2019-04-11T07:21:42.132Z,0.30
2019-04-11T07:24:28.288Z,0.60
2019-04-11T07:30:03.134Z,0.30
2019-04-11T07:32:29.909Z,0.30
2019-04-11T07:35:17.446Z,0.40
2019-04-11T07:37:44.732Z,0.40
2019-04-11T07:43:12.818Z,0.60
2019-04-11T07:56:16.486Z,0.47
2019-04-11T08:01:59.375Z,0.33
2019-04-11T08:05:06.929Z,0.50
2019-04-11T08:07:52.956Z,0.30
2019-04-11T08:10:38.982Z,0.50
2019-04-11T08:13:26.239Z,0.40
2019-04-11T08:19:03.626Z,0.30
2019-04-11T08:21:50.414Z,0.63
2019-04-11T08:24:38.122Z,0.60
2019-04-11T08:27:25.246Z,0.40
2019-04-11T08:32:46.393Z,0.30
2019-04-11T08:35:34.507Z,0.30
2019-04-11T08:43:43.367Z,0.40
2019-04-11T08:49:26.648Z,0.40
2019-04-11T08:51:55.783Z,0.40
2019-04-11T08:57:10.334Z,0.23
2019-04-11T08:59:56.331Z,0.40
2019-04-11T09:05:18.803Z,0.30
2019-04-11T09:08:03.952Z,0.30
2019-04-11T09:10:50.738Z,0.40
2019-04-11T09:13:37.664Z,0.20
2019-04-11T09:16:23.766Z,0.60
2019-04-11T09:18:52.450Z,0.40
2019-04-11T09:21:40.403Z,0.30
2019-04-11T09:27:22.716Z,0.30
2019-04-11T09:30:12.770Z,0.50
2019-04-11T09:38:20.284Z,0.40
2019-04-11T09:41:06.285Z,0.30
2019-04-11T09:46:26.301Z,0.30
2019-04-11T09:52:00.430Z,0.40
2019-04-11T09:54:46.525Z,0.40
2019-04-11T09:57:32.562Z,0.40
2019-04-11T10:00:18.810Z,0.20
2019-04-11T10:03:04.808Z,0.30
2019-04-11T10:05:51.635Z,0.30
2019-04-11T10:11:26.151Z,0.30
2019-04-11T10:17:00.258Z,0.30
2019-04-11T10:22:34.150Z,0.33
2019-04-11T10:25:21.209Z,0.30
2019-04-11T10:28:07.279Z,0.40
2019-04-11T10:30:53.706Z,0.40
2019-04-11T10:33:39.798Z,0.30
2019-04-11T10:41:40.054Z,0.20
2019-04-11T10:44:07.576Z,0.50
2019-04-11T10:52:22.580Z,0.20
2019-04-11T10:55:09.424Z,0.27
2019-04-11T10:57:56.173Z,0.30
2019-04-11T11:00:43.179Z,0.20
2019-04-11T11:03:11.742Z,0.20
2019-04-11T11:05:57.779Z,0.37
2019-04-11T11:08:43.975Z,0.40
2019-04-11T11:11:30.463Z,0.30
2019-04-11T11:14:16.503Z,0.40
2019-04-11T11:17:02.503Z,0.20
2019-04-11T11:24:57.988Z,0.20
2019-04-11T11:30:18.764Z,0.20
2019-04-11T11:32:45.376Z,0.30
2019-04-11T11:35:34.944Z,0.20
2019-04-11T11:40:54.229Z,0.20
2019-04-11T11:43:41.240Z,0.30
2019-04-11T11:46:30.115Z,0.27
2019-04-11T11:51:49.868Z,0.20
2019-04-11T11:56:56.163Z,0.20
2019-04-11T11:59:42.865Z,0.17
2019-04-11T12:02:28.946Z,0.27
2019-04-11T12:05:16.789Z,0.67
2019-04-11T12:08:02.937Z,0.10
2019-04-11T12:13:24.207Z,0.30
2019-04-11T12:16:10.244Z,0.20
2019-04-11T12:21:48.560Z,0.20
2019-04-11T12:27:40.008Z,0.30
2019-04-11T12:30:30.857Z,0.20
2019-04-11T12:33:13.027Z,0.20
2019-04-11T12:38:46.632Z,0.20
2019-04-11T12:41:32.771Z,0.17
2019-04-11T12:44:19.066Z,0.17
2019-04-11T12:47:07.600Z,0.20
2019-04-11T12:49:53.520Z,0.10
2019-04-11T12:52:39.620Z,0.20
2019-04-11T12:55:48.389Z,0.13
2019-04-11T12:58:35.939Z,0.10
2019-04-11T13:01:22.141Z,0.30
2019-04-11T13:04:08.148Z,0.20
2019-04-11T13:06:54.154Z,0.20
2019-04-11T13:09:40.162Z,0.13
2019-04-11T13:12:26.163Z,0.20
2019-04-11T13:15:12.160Z,0.03
2019-04-11T13:17:58.165Z,0.27
2019-04-11T13:23:02.886Z,0.10
2019-04-11T13:25:48.899Z,0.30
2019-04-11T13:28:15.137Z,0.10
2019-04-11T13:31:01.441Z,0.20
2019-04-11T13:33:27.696Z,0.20
2019-04-11T13:36:13.752Z,0.20
2019-04-11T13:38:40.045Z,0.20
2019-04-11T13:46:33.857Z,0.20
2019-04-11T13:52:07.517Z,0.27
2019-04-11T13:54:53.539Z,0.20
2019-04-11T13:57:39.547Z,0.17
2019-04-11T14:03:20.916Z,0.20
2019-04-11T14:08:54.484Z,0.40
2019-04-11T14:17:12.040Z,0.20
2019-04-11T14:19:58.187Z,0.20
2019-04-11T14:22:44.199Z,0.10
2019-04-11T14:25:30.216Z,0.17
2019-04-11T14:31:22.270Z,0.30
2019-04-11T14:36:42.540Z,0.10
2019-04-11T14:42:42.155Z,0.17
2019-04-11T14:48:13.729Z,0.13
2019-04-11T14:50:59.729Z,0.10
2019-04-11T14:53:46.641Z,0.20
2019-04-11T14:59:23.954Z,0.10
2019-04-11T15:04:56.324Z,0.10
2019-04-11T15:07:22.680Z,0.20
2019-04-11T15:10:08.720Z,0.10
2019-04-11T15:15:28.819Z,0.10
2019-04-11T15:20:54.875Z,0.30
2019-04-11T15:26:10.652Z,0.20
2019-04-11T15:29:00.286Z,0.10
2019-04-11T15:31:46.271Z,0.10
2019-04-11T15:34:32.296Z,0.20
2019-04-11T15:37:18.313Z,0.20
2019-04-11T15:40:05.161Z,0.27
2019-04-11T15:42:51.165Z,0.40
2019-04-11T15:45:37.471Z,0.10
2019-04-11T15:51:14.148Z,0.20
2019-04-11T16:02:10.815Z,0.20
2019-04-11T16:04:57.046Z,0.47
2019-04-11T16:12:51.273Z,1.10
2019-04-11T16:15:37.271Z,0.60
2019-04-11T16:18:23.333Z,0.10
2019-04-11T16:23:51.308Z,0.10
2019-04-11T16:29:27.531Z,0.30
2019-04-11T16:35:01.598Z,0.40
2019-04-11T16:37:28.553Z,0.40
2019-04-11T16:40:15.381Z,0.50
2019-04-11T16:45:49.313Z,0.40
2019-04-11T16:48:15.569Z,0.70
2019-04-11T16:50:41.830Z,0.40
2019-04-11T16:53:10.585Z,0.50
2019-04-11T16:55:36.942Z,0.10
2019-04-11T16:58:04.617Z,0.90
2019-04-11T17:00:31.060Z,0.87
2019-04-11T17:02:57.620Z,0.70
2019-04-11T17:05:24.023Z,0.50
2019-04-11T17:08:12.901Z,0.77
2019-04-11T17:10:59.236Z,0.40
2019-04-11T17:13:47.032Z,0.20
2019-04-11T17:19:08.422Z,0.53
2019-04-11T17:21:42.993Z,0.50
2019-04-11T17:24:03.248Z,1.10
2019-04-11T17:26:29.509Z,1.70
2019-04-11T17:28:56.042Z,2.83
2019-04-11T17:34:12.358Z,2.53
2019-04-11T17:36:38.610Z,1.10
2019-04-11T17:39:26.431Z,0.70
2019-04-11T17:41:52.691Z,1.63
2019-04-11T17:44:19.154Z,1.40
2019-04-11T17:46:45.415Z,2.27
2019-04-11T17:49:11.660Z,2.40
2019-04-11T17:54:44.583Z,1.70
2019-04-11T17:57:10.825Z,1.80
2019-04-11T17:59:37.081Z,1.20
2019-04-11T18:04:50.950Z,1.57
2019-04-11T18:07:17.762Z,1.27
2019-04-11T18:12:18.211Z,0.60
2019-04-11T18:14:44.490Z,1.27
2019-04-11T18:17:10.760Z,0.73
2019-04-11T18:19:37.013Z,0.97
2019-04-11T18:30:54.050Z,2.07
2019-04-11T18:33:20.247Z,2.30
2019-04-11T18:36:06.362Z,1.60
2019-04-11T18:38:32.743Z,1.17
2019-04-11T18:40:59.000Z,1.10
2019-04-11T18:43:25.583Z,1.30
2019-04-11T18:45:53.415Z,0.83
2019-04-11T18:48:19.657Z,0.80
2019-04-11T18:50:45.944Z,1.30
2019-04-11T18:53:12.183Z,0.87
2019-04-11T18:55:38.458Z,0.90
2019-04-11T18:58:04.972Z,1.10
2019-04-11T19:00:31.275Z,1.50
2019-04-11T19:02:57.527Z,1.30
2019-04-11T19:05:28.786Z,2.03
2019-04-11T19:07:51.946Z,1.20
2019-04-11T19:10:18.317Z,2.20
2019-04-11T19:12:46.416Z,3.13
2019-04-11T19:18:18.658Z,3.43
2019-04-11T19:20:44.982Z,1.53
2019-04-11T19:23:11.413Z,0.80
2019-04-11T19:25:40.034Z,0.43
2019-04-11T19:28:05.899Z,0.50
2019-04-11T19:30:32.162Z,1.03
2019-04-11T19:32:58.954Z,0.60
2019-04-11T19:35:25.248Z,1.23
2019-04-11T19:37:51.515Z,0.50
2019-04-11T19:40:17.897Z,0.80
2019-04-11T19:42:44.179Z,1.47
2019-04-11T19:45:10.535Z,1.93
2019-04-11T19:47:36.789Z,1.33
2019-04-11T19:50:26.723Z,1.17
2019-04-11T19:52:52.803Z,1.20
2019-04-11T19:55:38.785Z,1.00
2019-04-11T19:58:05.063Z,1.07
2019-04-11T20:00:31.321Z,0.83
2019-04-11T20:02:57.617Z,0.80
2019-04-11T20:05:23.895Z,0.80
2019-04-11T20:07:50.167Z,1.10
2019-04-11T20:10:16.428Z,0.63
2019-04-11T20:12:42.727Z,1.57
2019-04-11T20:15:08.979Z,1.40
2019-04-11T20:17:44.065Z,1.33
2019-04-11T20:23:10.523Z,0.90
2019-04-11T20:25:33.919Z,1.10
2019-04-11T20:28:00.380Z,1.87
2019-04-11T20:30:26.710Z,1.00
2019-04-11T20:32:52.974Z,0.80
2019-04-11T20:35:28.443Z,0.90
2019-04-11T20:37:47.422Z,0.90
2019-04-11T20:40:17.437Z,0.70
2019-04-11T20:42:41.847Z,0.63
2019-04-11T20:45:08.201Z,0.80
2019-04-11T20:47:34.466Z,0.53
2019-04-11T20:50:07.371Z,0.60
2019-04-11T20:52:28.912Z,1.83
2019-04-11T20:54:55.207Z,0.60
2019-04-11T20:57:26.008Z,1.50
2019-04-11T21:02:35.977Z,0.80
2019-04-11T21:05:02.261Z,0.40
2019-04-11T21:07:31.621Z,1.43
2019-04-11T21:12:37.272Z,0.40
2019-04-11T21:17:40.053Z,0.30
2019-04-11T21:20:06.632Z,0.50
2019-04-11T21:22:32.883Z,0.47
2019-04-11T21:24:59.639Z,0.50
2019-04-11T21:27:28.899Z,0.93
2019-04-11T21:29:59.777Z,0.50
2019-04-11T21:32:23.721Z,0.73
2019-04-11T21:34:49.997Z,0.70
2019-04-11T21:37:16.255Z,0.40
2019-04-11T21:39:42.530Z,0.43
2019-04-11T21:42:09.478Z,0.60
2019-04-11T21:44:36.952Z,0.60
2019-04-11T21:47:23.091Z,0.80
2019-04-11T21:50:11.697Z,0.50
2019-04-11T21:52:37.965Z,0.57
2019-04-11T21:58:05.031Z,0.20
2019-04-11T22:01:12.601Z,0.50
2019-04-11T22:03:38.984Z,0.70
2019-04-11T22:06:05.234Z,1.10
2019-04-11T22:08:32.005Z,0.60
2019-04-11T22:10:59.644Z,0.90
2019-04-11T22:13:25.950Z,0.50
2019-04-11T22:16:33.541Z,0.70
2019-04-11T22:21:53.881Z,0.70
2019-04-11T22:24:20.128Z,0.40
2019-04-11T22:26:50.156Z,0.80
2019-04-11T22:29:34.317Z,0.43
2019-04-11T22:32:00.771Z,0.50
2019-04-11T22:34:46.807Z,0.77
2019-04-11T22:37:13.085Z,0.77
2019-04-11T22:39:39.336Z,0.70
2019-04-11T22:42:05.649Z,0.73
2019-04-11T22:44:31.858Z,0.50
2019-04-11T22:46:58.132Z,0.50
2019-04-11T22:49:44.164Z,0.90
2019-04-11T22:52:30.164Z,0.73
2019-04-11T22:54:56.597Z,0.60
2019-04-11T22:57:22.855Z,0.50
2019-04-11T23:00:08.865Z,0.50
2019-04-11T23:02:54.890Z,0.40
2019-04-11T23:05:21.195Z,0.73
2019-04-11T23:07:48.462Z,0.60
2019-04-11T23:10:17.069Z,1.00
2019-04-11T23:17:51.217Z,0.70
2019-04-11T23:20:17.838Z,0.53
2019-04-11T23:22:44.124Z,0.70
2019-04-11T23:25:10.476Z,0.97
2019-04-11T23:27:36.722Z,0.70
2019-04-11T23:33:01.343Z,0.70
2019-04-11T23:35:27.630Z,0.60
2019-04-11T23:37:53.890Z,0.40
2019-04-11T23:40:21.008Z,0.57
2019-04-11T23:45:51.205Z,0.40
2019-04-11T23:48:17.313Z,0.40
2019-04-11T23:50:43.680Z,0.70
2019-04-11T23:53:09.925Z,0.50
2019-04-11T23:55:36.190Z,0.60
2019-04-11T23:58:02.532Z,0.57
